Time;durP1;ratioP1;P1;durP2;ratioP2;P2;SDS_P1;SDS_P2;PMS_P1;PMS_P2;Temp;Humidity;BMP_temperature;BMP_pressure;BME280_temperature;BME280_humidity;BME280_pressure;Samples;Min_cycle;Max_cycle;Signal;HPM_P1;HPM_P2
2021/03/21 00:02:20;;;;;;;13.55;3.33;;;7.30;99.90;;;;;;5017038;28;20054;-86
2021/03/21 00:04:48;;;;;;;9.18;3.50;;;7.30;99.90;;;;;;5016864;28;20489;-87
2021/03/21 00:07:14;;;;;;;14.77;3.78;;;7.30;99.90;;;;;;5017322;28;20053;-86
2021/03/21 00:09:41;;;;;;;12.32;4.43;;;7.30;99.90;;;;;;5017047;28;20057;-86
2021/03/21 00:12:09;;;;;;;9.55;3.80;;;7.20;99.90;;;;;;5017358;28;20058;-86
2021/03/21 00:14:35;;;;;;;12.68;4.15;;;7.20;99.90;;;;;;5016986;28;20465;-86
2021/03/21 00:17:02;;;;;;;12.43;4.32;;;7.20;99.90;;;;;;5017165;28;20064;-86
2021/03/21 00:19:29;;;;;;;11.98;4.30;;;7.10;99.90;;;;;;5017155;28;20414;-86
2021/03/21 00:21:57;;;;;;;13.10;3.33;;;7.20;99.90;;;;;;5016673;28;20055;-85
2021/03/21 00:24:23;;;;;;;10.40;3.55;;;7.10;99.90;;;;;;5016987;28;20053;-86
2021/03/21 00:26:50;;;;;;;10.40;4.07;;;7.10;99.90;;;;;;5017218;28;20356;-85
2021/03/21 00:29:16;;;;;;;8.55;4.13;;;7.10;99.90;;;;;;5017363;28;20060;-84
2021/03/21 00:31:43;;;;;;;22.15;9.98;;;7.10;99.90;;;;;;5017454;28;20057;-85
2021/03/21 00:34:09;;;;;;;16.35;9.15;;;7.10;99.90;;;;;;5016732;28;20053;-86
2021/03/21 00:36:36;;;;;;;19.00;8.18;;;7.10;99.90;;;;;;5016833;28;20072;-86
2021/03/21 00:39:04;;;;;;;17.50;8.20;;;7.10;99.90;;;;;;5016549;28;20056;-86
2021/03/21 00:41:30;;;;;;;25.58;10.73;;;7.00;99.90;;;;;;5016598;28;20058;-86
2021/03/21 00:43:58;;;;;;;13.43;5.05;;;7.00;99.90;;;;;;5016434;28;20486;-85
2021/03/21 00:46:25;;;;;;;10.95;4.20;;;7.00;99.90;;;;;;5016544;28;20360;-87
2021/03/21 00:48:51;;;;;;;11.15;3.50;;;7.00;99.90;;;;;;5015134;28;20498;-86
2021/03/21 00:51:18;;;;;;;11.43;3.65;;;6.90;99.90;;;;;;5016313;28;20049;-86
2021/03/21 00:53:45;;;;;;;11.93;3.63;;;6.90;99.90;;;;;;5016341;28;20466;-85
2021/03/21 00:56:30;;;;;;;8.75;3.63;;;6.90;99.90;;;;;;5017615;28;20053;-84
2021/03/21 00:58:58;;;;;;;12.07;4.53;;;6.90;99.90;;;;;;5016523;28;20467;-86
2021/03/21 01:01:25;;;;;;;8.90;3.80;;;6.90;99.90;;;;;;5016991;28;20041;-85
2021/03/21 01:03:51;;;;;;;11.05;4.93;;;6.90;99.90;;;;;;5016633;28;20054;-85
2021/03/21 01:06:18;;;;;;;11.73;4.97;;;6.90;99.90;;;;;;5016336;28;20068;-86
2021/03/21 01:08:44;;;;;;;8.63;4.63;;;6.90;99.90;;;;;;5016324;28;20084;-85
2021/03/21 01:11:12;;;;;;;17.23;5.10;;;6.90;99.90;;;;;;5016815;28;20042;-85
2021/03/21 01:13:40;;;;;;;12.50;5.47;;;6.90;99.90;;;;;;5016376;28;20061;-85
2021/03/21 01:16:07;;;;;;;12.25;5.40;;;6.90;99.90;;;;;;5017388;28;20054;-85
2021/03/21 01:18:34;;;;;;;12.38;4.95;;;6.90;99.90;;;;;;5017730;28;20045;-85
2021/03/21 01:21:01;;;;;;;11.30;4.68;;;6.90;99.90;;;;;;5018401;28;20053;-85
2021/03/21 01:23:28;;;;;;;9.27;4.40;;;6.80;99.90;;;;;;5019180;28;20042;-85
2021/03/21 01:25:55;;;;;;;11.35;5.82;;;6.80;99.90;;;;;;5019872;28;20061;-85
2021/03/21 01:28:23;;;;;;;10.18;4.85;;;6.80;99.90;;;;;;5021203;28;20470;-84
2021/03/21 01:30:50;;;;;;;10.27;5.30;;;6.70;99.90;;;;;;5020906;28;20054;-84
2021/03/21 01:33:17;;;;;;;13.02;5.47;;;6.70;99.90;;;;;;5024904;28;20054;-84
2021/03/21 01:35:44;;;;;;;13.40;6.05;;;6.70;99.90;;;;;;5021265;28;20058;-85
2021/03/21 01:38:10;;;;;;;20.23;6.25;;;6.70;99.90;;;;;;5019274;28;20053;-85
2021/03/21 01:40:37;;;;;;;20.13;6.50;;;6.70;99.90;;;;;;5018365;28;20388;-85
2021/03/21 01:43:04;;;;;;;15.90;5.18;;;6.80;99.90;;;;;;5016667;28;20063;-85
2021/03/21 01:45:37;;;;;;;14.32;6.15;;;6.80;99.90;;;;;;5017381;28;20054;-85
2021/03/21 01:48:07;;;;;;;12.65;6.53;;;6.90;99.90;;;;;;5016105;28;20049;-85
2021/03/21 01:50:36;;;;;;;12.13;6.45;;;6.90;99.90;;;;;;5015555;28;20099;-85
2021/03/21 01:53:03;;;;;;;17.25;6.28;;;7.00;99.90;;;;;;5015241;28;20062;-86
2021/03/21 01:55:29;;;;;;;13.63;5.18;;;7.00;99.90;;;;;;5015406;28;20053;-86
2021/03/21 01:57:56;;;;;;;14.70;5.60;;;7.00;99.90;;;;;;5015077;28;20072;-87
2021/03/21 02:00:23;;;;;;;12.82;7.13;;;7.10;99.90;;;;;;5014641;28;20420;-85
2021/03/21 02:02:50;;;;;;;12.18;6.18;;;7.10;99.90;;;;;;5015241;28;20054;-86
2021/03/21 02:05:17;;;;;;;12.70;5.75;;;7.10;99.90;;;;;;5015028;28;20141;-86
2021/03/21 02:07:53;;;;;;;10.48;6.63;;;7.10;99.90;;;;;;5014795;28;20111;-86
2021/03/21 02:10:24;;;;;;;14.82;7.53;;;7.10;99.90;;;;;;5014766;28;20057;-87
2021/03/21 02:12:55;;;;;;;15.75;7.15;;;7.00;99.90;;;;;;5014832;28;20076;-87
2021/03/21 02:15:25;;;;;;;11.30;5.57;;;7.00;99.90;;;;;;5020953;28;20482;-92
2021/03/21 02:21:17;;;;;;;14.75;6.05;;;7.00;99.90;;;;;;5046338;22;20478;-83
2021/03/21 02:24:08;;;;;;;13.63;5.75;;;7.10;99.90;;;;;;4989526;28;20058;-83
2021/03/21 02:26:49;;;;;;;17.73;7.40;;;7.10;99.90;;;;;;4995252;28;20050;-83
2021/03/21 02:29:21;;;;;;;16.23;6.80;;;7.10;99.90;;;;;;4995242;28;20094;-85
2021/03/21 02:31:51;;;;;;;14.10;6.57;;;7.00;99.90;;;;;;4994902;28;20062;-82
2021/03/21 02:34:21;;;;;;;21.60;7.43;;;7.10;99.90;;;;;;4994934;28;20072;-84
2021/03/21 02:36:48;;;;;;;15.82;7.85;;;7.10;99.90;;;;;;4995536;28;20150;-84
2021/03/21 02:39:19;;;;;;;17.58;6.97;;;7.10;99.90;;;;;;4994761;28;20054;-83
2021/03/21 02:41:47;;;;;;;15.50;7.30;;;7.10;99.90;;;;;;4994825;28;20054;-83
2021/03/21 02:44:17;;;;;;;16.95;7.18;;;7.10;99.90;;;;;;4995024;28;20060;-84
2021/03/21 02:46:46;;;;;;;17.60;7.40;;;7.10;99.90;;;;;;4994084;28;20056;-83
2021/03/21 02:49:14;;;;;;;15.52;7.65;;;7.10;99.90;;;;;;4994432;28;20387;-83
2021/03/21 02:51:42;;;;;;;18.08;7.28;;;7.10;99.90;;;;;;4997797;28;20046;-86
2021/03/21 02:54:10;;;;;;;18.55;7.57;;;7.10;99.90;;;;;;5014536;28;20441;-83
2021/03/21 02:56:37;;;;;;;13.35;7.63;;;7.10;99.90;;;;;;5014304;28;20378;-86
2021/03/21 02:59:05;;;;;;;19.00;9.98;;;7.10;99.90;;;;;;5014257;28;20053;-82
2021/03/21 03:01:35;;;;;;;15.13;7.60;;;7.10;99.90;;;;;;5014016;28;20057;-84
2021/03/21 03:04:07;;;;;;;16.75;7.88;;;7.10;99.90;;;;;;5014442;28;20056;-84
2021/03/21 03:06:34;;;;;;;14.27;7.53;;;7.10;99.90;;;;;;5014496;28;20103;-86
2021/03/21 03:09:05;;;;;;;18.05;7.60;;;7.20;99.90;;;;;;5014617;28;20053;-86
2021/03/21 03:11:35;;;;;;;21.08;8.68;;;7.20;99.90;;;;;;5015328;28;20049;-86
2021/03/21 03:14:02;;;;;;;12.88;6.50;;;7.20;99.90;;;;;;5017971;28;20058;-84
2021/03/21 03:16:32;;;;;;;16.73;8.52;;;7.20;99.90;;;;;;5017702;28;20489;-82
2021/03/21 03:19:02;;;;;;;18.73;6.97;;;7.20;99.90;;;;;;5017633;28;20054;-84
2021/03/21 03:21:31;;;;;;;13.93;6.68;;;7.20;99.90;;;;;;5017382;28;20049;-86
2021/03/21 03:24:02;;;;;;;16.40;6.53;;;7.20;99.90;;;;;;5017697;28;20054;-86
2021/03/21 03:26:32;;;;;;;12.95;6.43;;;7.20;99.90;;;;;;5017017;28;20062;-86
2021/03/21 03:29:00;;;;;;;21.35;8.30;;;7.20;99.90;;;;;;5017316;28;20459;-82
2021/03/21 03:31:30;;;;;;;17.13;8.18;;;7.20;99.90;;;;;;5017670;28;20453;-86
2021/03/21 03:33:56;;;;;;;16.88;7.20;;;7.20;99.90;;;;;;5017478;28;20046;-85
2021/03/21 03:36:23;;;;;;;18.30;8.38;;;7.20;99.90;;;;;;5017808;28;20278;-86
2021/03/21 03:38:50;;;;;;;19.52;7.80;;;7.20;99.90;;;;;;5017392;28;20056;-85
2021/03/21 03:41:21;;;;;;;13.02;6.78;;;7.20;99.90;;;;;;5017604;28;20054;-86
2021/03/21 03:43:53;;;;;;;23.50;7.35;;;7.20;99.90;;;;;;5017571;28;20057;-86
2021/03/21 03:46:22;;;;;;;16.98;8.10;;;7.20;99.90;;;;;;5017624;28;20382;-87
2021/03/21 03:48:53;;;;;;;20.73;8.40;;;7.20;99.90;;;;;;5017459;28;20393;-86
2021/03/21 03:51:28;;;;;;;13.85;7.60;;;7.20;99.90;;;;;;5016887;28;20068;-86
2021/03/21 03:54:02;;;;;;;16.50;7.28;;;7.30;99.90;;;;;;5017156;28;20352;-86
2021/03/21 03:56:39;;;;;;;15.38;7.60;;;7.30;99.90;;;;;;5017071;28;20115;-86
2021/03/21 03:59:08;;;;;;;15.05;6.85;;;7.30;99.90;;;;;;5017210;28;20060;-86
2021/03/21 04:01:37;;;;;;;15.88;7.80;;;7.30;99.90;;;;;;5016981;28;20046;-86
2021/03/21 04:04:17;;;;;;;22.42;6.93;;;7.30;99.90;;;;;;5017203;28;20060;-86
2021/03/21 04:06:49;;;;;;;19.83;6.75;;;7.30;99.90;;;;;;5016764;28;20402;-86
2021/03/21 04:09:19;;;;;;;12.27;6.38;;;7.30;99.90;;;;;;5017149;28;20050;-86
2021/03/21 04:11:48;;;;;;;18.60;6.60;;;7.30;99.90;;;;;;5016810;28;20042;-86
2021/03/21 04:14:20;;;;;;;14.90;6.47;;;7.30;99.90;;;;;;5016732;28;20050;-86
2021/03/21 04:16:50;;;;;;;17.02;6.40;;;7.30;99.90;;;;;;5016673;28;20483;-86
2021/03/21 04:19:16;;;;;;;14.40;7.07;;;7.30;99.90;;;;;;5016543;28;20524;-85
2021/03/21 04:21:46;;;;;;;14.05;6.65;;;7.30;99.90;;;;;;5016469;28;20046;-86
2021/03/21 04:24:14;;;;;;;14.57;6.35;;;7.30;99.90;;;;;;5016619;28;20064;-85
2021/03/21 04:26:44;;;;;;;12.95;6.82;;;7.30;99.90;;;;;;5016649;28;20056;-86
2021/03/21 04:29:15;;;;;;;11.57;6.20;;;7.30;99.90;;;;;;5016793;28;20076;-84
2021/03/21 04:31:42;;;;;;;19.50;6.57;;;7.30;99.90;;;;;;5016738;28;20056;-86
2021/03/21 04:34:09;;;;;;;16.23;6.63;;;7.30;99.90;;;;;;5016516;28;20394;-86
2021/03/21 04:36:37;;;;;;;12.57;6.07;;;7.30;99.90;;;;;;5016257;28;20046;-86
2021/03/21 04:39:06;;;;;;;17.52;6.72;;;7.30;99.90;;;;;;5016292;28;20374;-86
2021/03/21 04:41:35;;;;;;;13.00;6.90;;;7.30;99.90;;;;;;5016185;28;20052;-86
2021/03/21 04:44:05;;;;;;;13.27;6.88;;;7.30;99.90;;;;;;5016185;28;20525;-85
2021/03/21 04:46:33;;;;;;;19.00;6.82;;;7.30;99.90;;;;;;5016089;28;20544;-87
2021/03/21 04:48:59;;;;;;;16.58;7.00;;;7.30;99.90;;;;;;5016204;28;20370;-86
2021/03/21 04:51:27;;;;;;;18.02;7.70;;;7.30;99.90;;;;;;5015821;28;20108;-85
2021/03/21 04:53:55;;;;;;;15.50;7.50;;;7.30;99.90;;;;;;5015965;28;20050;-85
2021/03/21 04:56:24;;;;;;;16.60;7.47;;;7.30;99.90;;;;;;5015933;28;20072;-85
2021/03/21 04:58:52;;;;;;;23.30;7.45;;;7.30;99.90;;;;;;5016168;28;20372;-86
2021/03/21 05:01:22;;;;;;;18.40;8.05;;;7.30;99.90;;;;;;5015850;28;20046;-85
2021/03/21 05:03:51;;;;;;;23.33;8.13;;;7.30;99.90;;;;;;5015774;28;20054;-86
2021/03/21 05:06:20;;;;;;;21.52;7.55;;;7.30;99.90;;;;;;5015828;28;20085;-85
2021/03/21 05:08:51;;;;;;;15.68;7.03;;;7.30;99.90;;;;;;5015592;28;20064;-86
2021/03/21 05:11:18;;;;;;;16.77;7.65;;;7.30;99.90;;;;;;5015580;28;20485;-86
2021/03/21 05:13:49;;;;;;;16.50;8.85;;;7.30;99.90;;;;;;4996622;28;20112;-85
2021/03/21 05:16:19;;;;;;;18.15;9.10;;;7.30;99.90;;;;;;4996006;28;20387;-85
2021/03/21 05:18:49;;;;;;;20.30;9.40;;;7.30;99.90;;;;;;4995969;28;20050;-86
2021/03/21 05:21:18;;;;;;;18.35;8.65;;;7.30;99.90;;;;;;4995835;28;20054;-85
2021/03/21 05:23:51;;;;;;;15.95;7.15;;;7.30;99.90;;;;;;4996116;28;20088;-85
2021/03/21 05:26:20;;;;;;;20.52;7.38;;;7.40;99.90;;;;;;4995972;28;20670;-86
2021/03/21 05:28:55;;;;;;;17.08;7.38;;;7.40;99.90;;;;;;4995667;28;20058;-85
2021/03/21 05:31:22;;;;;;;20.02;8.68;;;7.30;99.90;;;;;;4996047;28;20049;-87
2021/03/21 05:33:50;;;;;;;22.08;8.13;;;7.40;99.90;;;;;;4995004;28;20054;-85
2021/03/21 05:36:24;;;;;;;23.15;9.13;;;7.40;99.90;;;;;;4995868;28;20072;-86
2021/03/21 05:38:53;;;;;;;;;;;7.40;99.90;;;;;;4996077;28;20054;-86
2021/03/21 05:41:53;;;;;;;17.05;7.82;;;7.40;99.90;;;;;;4995615;28;19944;-87
2021/03/21 05:44:45;;;;;;;22.48;7.55;;;7.40;99.90;;;;;;4995708;28;20108;-86
2021/03/21 05:48:00;;;;;;;19.88;8.35;;;7.40;99.90;;;;;;4995705;28;20056;-85
2021/03/21 05:51:14;;;;;;;15.48;8.02;;;7.40;99.90;;;;;;4935904;29;20055;-85
2021/03/21 05:54:16;;;;;;;23.38;8.65;;;7.40;99.90;;;;;;4925825;29;20559;-84
2021/03/21 05:57:05;;;;;;;19.58;8.25;;;7.40;99.90;;;;;;4914544;29;20055;-86
2021/03/21 05:59:44;;;;;;;20.15;7.57;;;7.50;99.90;;;;;;4935826;29;20055;-86
2021/03/21 06:02:44;;;;;;;19.85;8.50;;;7.40;99.90;;;;;;4936013;29;20374;-86
2021/03/21 06:05:39;;;;;;;20.58;7.40;;;7.50;99.90;;;;;;4935832;29;20051;-85
2021/03/21 06:08:22;;;;;;;19.03;8.87;;;7.50;99.90;;;;;;4935817;29;20048;-85
2021/03/21 06:11:12;;;;;;;19.27;7.28;;;7.50;99.90;;;;;;4935325;29;20062;-85
2021/03/21 06:13:47;;;;;;;18.83;7.53;;;7.50;99.90;;;;;;4935830;29;20057;-85
2021/03/21 06:16:41;;;;;;;18.75;8.00;;;7.50;99.90;;;;;;4935822;29;20066;-86
2021/03/21 06:19:39;;;;;;;14.45;6.95;;;7.50;99.90;;;;;;4935301;29;20064;-85
2021/03/21 06:22:31;;;;;;;23.02;7.90;;;7.50;99.90;;;;;;4918783;29;20086;-86
2021/03/21 06:25:20;;;;;;;22.33;7.53;;;7.50;99.90;;;;;;5000750;28;20215;-87
2021/03/21 06:28:21;;;;;;;17.33;6.50;;;7.50;99.90;;;;;;5014795;28;20088;-85
2021/03/21 06:31:11;;;;;;;18.35;8.45;;;7.50;99.90;;;;;;5014513;28;20057;-86
2021/03/21 06:33:44;;;;;;;14.52;6.53;;;7.60;99.90;;;;;;5006638;28;20058;-87
2021/03/21 06:36:25;;;;;;;20.40;7.68;;;7.60;99.90;;;;;;5014557;28;20089;-86
2021/03/21 06:39:20;;;;;;;15.07;7.03;;;7.60;99.90;;;;;;5014675;28;20344;-85
2021/03/21 06:42:04;;;;;;;20.05;7.47;;;7.60;99.90;;;;;;5014952;28;20064;-86
2021/03/21 06:44:45;;;;;;;21.23;8.07;;;7.60;99.90;;;;;;5014220;28;20058;-86
2021/03/21 06:47:36;;;;;;;19.40;6.93;;;7.60;99.90;;;;;;5018532;28;20064;-86
2021/03/21 06:50:15;;;;;;;17.40;7.25;;;7.60;99.90;;;;;;5018513;28;20050;-86
2021/03/21 06:52:44;;;;;;;20.33;8.23;;;7.60;99.90;;;;;;5017907;28;20467;-86
2021/03/21 06:55:11;;;;;;;19.65;7.38;;;7.60;99.90;;;;;;5018230;28;20462;-86
2021/03/21 06:58:10;;;;;;;18.23;6.93;;;7.70;99.90;;;;;;5018283;28;20054;-86
2021/03/21 07:01:15;;;;;;;19.02;7.40;;;7.70;99.90;;;;;;5018158;28;20045;-85
2021/03/21 07:04:11;;;;;;;18.60;7.63;;;7.70;99.90;;;;;;5017932;28;20060;-86
2021/03/21 07:07:10;;;;;;;21.95;7.88;;;7.70;99.90;;;;;;5018019;28;20425;-85
2021/03/21 07:10:14;;;;;;;15.85;6.93;;;7.80;99.90;;;;;;5017894;28;20489;-86
2021/03/21 07:13:20;;;;;;;19.10;6.95;;;7.80;99.90;;;;;;5018038;28;20129;-86
2021/03/21 07:16:21;;;;;;;10.82;5.90;;;7.80;99.90;;;;;;4956240;29;20094;-84
2021/03/21 07:19:16;;;;;;;17.38;6.90;;;7.80;99.90;;;;;;4941134;29;20411;-85
2021/03/21 07:22:05;;;;;;;18.98;7.13;;;7.90;99.90;;;;;;4957440;29;20043;-86
2021/03/21 07:24:58;;;;;;;17.83;7.05;;;7.80;99.90;;;;;;4957580;29;20488;-85
2021/03/21 07:27:51;;;;;;;14.18;6.95;;;7.90;99.90;;;;;;4941233;29;20062;-86
2021/03/21 07:30:20;;;;;;;18.15;8.00;;;7.90;99.90;;;;;;4957637;29;20051;-86
2021/03/21 07:33:01;;;;;;;18.85;7.55;;;7.90;99.90;;;;;;4957410;29;20497;-86
2021/03/21 07:36:20;;;;;;;18.17;7.32;;;8.00;99.90;;;;;;4957650;29;20051;-85
2021/03/21 07:39:11;;;;;;;17.05;7.85;;;8.00;99.90;;;;;;4957238;29;20476;-86
2021/03/21 07:42:09;;;;;;;18.33;7.85;;;8.00;99.90;;;;;;4954288;29;20506;-86
2021/03/21 07:44:47;;;;;;;14.35;6.78;;;8.00;99.90;;;;;;4947612;29;20112;-87
2021/03/21 07:47:26;;;;;;;15.98;7.30;;;8.00;99.90;;;;;;4957464;29;20062;-86
2021/03/21 07:50:29;;;;;;;16.02;7.40;;;8.00;99.90;;;;;;4957144;29;20473;-85
2021/03/21 07:53:10;;;;;;;14.52;7.47;;;8.00;99.90;;;;;;4991806;28;20045;-87
2021/03/21 07:55:46;;;;;;;14.65;7.25;;;8.00;99.90;;;;;;5017132;28;20050;-86
2021/03/21 07:58:17;;;;;;;14.50;7.03;;;8.00;99.90;;;;;;5016313;28;20046;-87
2021/03/21 08:00:43;;;;;;;18.17;6.80;;;8.10;99.90;;;;;;5016920;28;20454;-86
2021/03/21 08:03:19;;;;;;;16.17;7.22;;;8.10;99.90;;;;;;5017106;28;20046;-87
2021/03/21 08:05:46;;;;;;;15.48;6.68;;;8.10;99.90;;;;;;5016932;28;20064;-86
2021/03/21 08:08:15;;;;;;;18.40;7.88;;;8.10;99.90;;;;;;5016732;28;20389;-86
2021/03/21 08:10:41;;;;;;;14.07;6.95;;;8.10;99.90;;;;;;5016544;28;20046;-86
2021/03/21 08:13:11;;;;;;;13.93;6.05;;;8.10;99.90;;;;;;5016777;28;20057;-86
2021/03/21 08:15:38;;;;;;;16.08;6.95;;;8.10;99.90;;;;;;5016767;28;20053;-87
2021/03/21 08:18:05;;;;;;;16.02;6.65;;;8.20;99.90;;;;;;5016816;28;20061;-86
2021/03/21 08:20:33;;;;;;;16.15;6.28;;;8.20;99.90;;;;;;5016373;28;20064;-86
2021/03/21 08:23:14;;;;;;;15.05;5.82;;;8.10;99.90;;;;;;5016249;28;20458;-85
2021/03/21 08:25:42;;;;;;;14.40;7.13;;;8.20;99.90;;;;;;5016738;28;20046;-86
2021/03/21 08:28:11;;;;;;;15.65;6.63;;;8.20;99.90;;;;;;5016381;28;20064;-86
2021/03/21 08:30:49;;;;;;;10.00;6.03;;;8.20;99.90;;;;;;5016513;28;20505;-86
2021/03/21 08:33:27;;;;;;;13.95;6.47;;;8.20;99.90;;;;;;5016533;28;20053;-86
2021/03/21 08:36:12;;;;;;;10.10;5.40;;;8.30;99.90;;;;;;5016397;28;20068;-85
2021/03/21 08:38:38;;;;;;;13.77;6.20;;;8.30;99.90;;;;;;5016213;28;20064;-86
2021/03/21 08:41:06;;;;;;;13.70;6.20;;;8.30;99.90;;;;;;5016206;28;20402;-87
2021/03/21 08:43:34;;;;;;;10.90;6.07;;;8.30;99.90;;;;;;5016479;28;20053;-86
2021/03/21 08:46:08;;;;;;;12.95;6.22;;;8.40;99.90;;;;;;5016116;28;20542;-86
2021/03/21 08:48:35;;;;;;;17.33;6.13;;;8.40;99.90;;;;;;5016099;28;20050;-86
2021/03/21 08:51:29;;;;;;;11.00;6.28;;;8.40;99.90;;;;;;5016243;28;20181;-86
2021/03/21 08:53:58;;;;;;;15.55;5.90;;;8.50;99.90;;;;;;5002851;28;20068;-87
2021/03/21 08:56:26;;;;;;;14.55;6.07;;;8.50;99.90;;;;;;5016168;28;20053;-86
2021/03/21 08:58:54;;;;;;;11.77;6.72;;;8.60;99.90;;;;;;5015910;28;20149;-86
2021/03/21 09:01:22;;;;;;;17.67;6.95;;;8.60;99.90;;;;;;5016121;28;20352;-87
2021/03/21 09:03:49;;;;;;;12.98;6.80;;;8.70;99.90;;;;;;5015772;28;20088;-86
2021/03/21 09:06:33;;;;;;;14.50;6.40;;;8.70;99.90;;;;;;5015740;28;20050;-86
2021/03/21 09:09:17;;;;;;;12.07;5.80;;;8.80;99.90;;;;;;5014808;28;20133;-86
2021/03/21 09:11:45;;;;;;;15.98;7.25;;;8.80;99.90;;;;;;5015659;28;20046;-86
2021/03/21 09:14:14;;;;;;;13.48;7.07;;;8.90;99.90;;;;;;5015583;28;20049;-86
2021/03/21 09:16:57;;;;;;;16.90;7.95;;;8.90;99.90;;;;;;5015494;28;20060;-86
2021/03/21 09:19:25;;;;;;;15.88;7.55;;;8.90;99.90;;;;;;5015777;28;20053;-84
2021/03/21 09:21:52;;;;;;;16.52;8.32;;;8.90;99.90;;;;;;5015208;28;20050;-86
2021/03/21 09:24:22;;;;;;;16.77;7.78;;;8.90;99.90;;;;;;5015468;28;20057;-86
2021/03/21 09:26:50;;;;;;;15.57;7.80;;;9.00;99.90;;;;;;5015775;28;20056;-86
2021/03/21 09:29:28;;;;;;;14.90;7.75;;;9.20;99.90;;;;;;5015274;28;20049;-85
2021/03/21 09:31:56;;;;;;;13.05;6.93;;;9.30;99.90;;;;;;5015313;28;20485;-86
2021/03/21 09:34:28;;;;;;;14.50;8.35;;;9.40;99.90;;;;;;5015232;28;20049;-86
2021/03/21 09:36:58;;;;;;;13.35;7.53;;;9.50;99.90;;;;;;5015245;28;20050;-85
2021/03/21 09:39:25;;;;;;;15.45;7.90;;;9.50;99.90;;;;;;5015159;28;20080;-86
2021/03/21 09:41:53;;;;;;;18.98;8.57;;;9.50;99.90;;;;;;5014984;28;20050;-86
2021/03/21 09:44:23;;;;;;;19.48;9.00;;;9.40;99.90;;;;;;5015094;28;20060;-86
2021/03/21 09:46:52;;;;;;;16.33;7.22;;;9.30;99.90;;;;;;5015187;28;20373;-86
2021/03/21 09:49:22;;;;;;;16.95;8.27;;;9.40;99.90;;;;;;5015196;28;20080;-86
2021/03/21 09:51:52;;;;;;;17.73;8.32;;;9.40;99.90;;;;;;5015053;28;20099;-86
2021/03/21 09:54:35;;;;;;;19.60;9.07;;;9.40;99.90;;;;;;5014922;28;20050;-85
2021/03/21 09:57:14;;;;;;;22.67;7.72;;;9.40;99.90;;;;;;5013471;28;20058;-86
2021/03/21 09:59:46;;;;;;;16.75;8.23;;;9.40;99.90;;;;;;5015183;28;20064;-86
2021/03/21 10:02:22;;;;;;;17.25;7.65;;;9.40;99.90;;;;;;5015117;28;20109;-86
2021/03/21 10:04:54;;;;;;;20.00;8.05;;;9.40;99.90;;;;;;5014715;28;20064;-85
2021/03/21 10:07:23;;;;;;;17.52;7.13;;;9.40;99.90;;;;;;5014913;28;20054;-86
2021/03/21 10:09:49;;;;;;;12.13;6.43;;;9.30;99.90;;;;;;5014629;28;20104;-86
2021/03/21 10:12:17;;;;;;;12.75;7.13;;;9.30;99.90;;;;;;5007582;28;20046;-85
2021/03/21 10:14:57;;;;;;;15.60;7.45;;;9.30;99.90;;;;;;4995126;28;20060;-86
2021/03/21 10:17:47;;;;;;;11.73;6.80;;;9.30;99.90;;;;;;4995134;28;20046;-86
2021/03/21 10:20:14;;;;;;;12.38;6.65;;;9.30;99.90;;;;;;4994325;28;20062;-86
2021/03/21 10:22:58;;;;;;;12.45;7.03;;;9.30;99.90;;;;;;5005818;28;20050;-85
2021/03/21 10:25:57;;;;;;;15.82;5.97;;;9.30;99.90;;;;;;5014360;28;20053;-85
2021/03/21 10:28:46;;;;;;;19.63;7.65;;;9.40;99.90;;;;;;5013859;28;20127;-85
2021/03/21 10:31:29;;;;;;;13.45;7.15;;;9.40;99.90;;;;;;5014692;28;20049;-85
2021/03/21 10:33:56;;;;;;;11.85;6.00;;;9.40;99.90;;;;;;5014433;28;20050;-86
2021/03/21 10:36:45;;;;;;;15.93;5.47;;;9.40;99.90;;;;;;5014754;28;20427;-86
2021/03/21 10:39:12;;;;;;;17.33;5.07;;;9.40;99.90;;;;;;5014187;28;20061;-85
2021/03/21 10:42:00;;;;;;;10.13;5.18;;;9.30;99.90;;;;;;5014708;28;20050;-87
2021/03/21 10:44:56;;;;;;;13.40;5.75;;;9.30;99.90;;;;;;5015691;28;20086;-95
2021/03/21 10:47:50;;;;;;;12.65;5.45;;;9.40;99.90;;;;;;5018003;28;20084;-91
2021/03/21 10:50:46;;;;;;;12.15;5.78;;;9.40;99.90;;;;;;5011592;28;20049;-92
2021/03/21 10:53:19;;;;;;;14.20;7.10;;;9.30;99.90;;;;;;5012272;28;20050;-87
2021/03/21 10:56:01;;;;;;;11.95;5.05;;;9.30;99.90;;;;;;5014468;28;20459;-89
2021/03/21 10:58:46;;;;;;;15.00;5.40;;;9.30;99.90;;;;;;5014588;28;20104;-86
2021/03/21 11:01:28;;;;;;;11.85;5.53;;;9.30;99.90;;;;;;5012306;28;20056;-92
2021/03/21 11:04:22;;;;;;;8.68;5.53;;;9.30;99.90;;;;;;5015170;28;20046;-91
2021/03/21 11:06:54;;;;;;;14.57;5.05;;;9.40;99.90;;;;;;5024467;28;20470;-94
2021/03/21 11:09:24;;;;;;;10.82;4.70;;;9.40;99.90;;;;;;5014972;28;20054;-92
2021/03/21 11:11:50;;;;;;;13.65;5.47;;;9.50;99.90;;;;;;5014884;28;20155;-91
2021/03/21 11:14:20;;;;;;;23.05;5.57;;;9.60;99.90;;;;;;5015229;28;20425;-90
2021/03/21 11:16:52;;;;;;;12.85;4.75;;;9.70;99.90;;;;;;5014849;28;20052;-90
2021/03/21 11:19:19;;;;;;;13.82;4.70;;;9.80;99.90;;;;;;5014560;28;20094;-88
2021/03/21 11:21:46;;;;;;;16.33;5.03;;;10.00;99.90;;;;;;5014312;28;20042;-88
2021/03/21 11:24:31;;;;;;;13.20;4.90;;;10.10;99.90;;;;;;5014281;28;20050;-88
2021/03/21 11:26:58;;;;;;;15.77;4.03;;;10.20;99.90;;;;;;5014296;28;20050;-89
2021/03/21 11:29:27;;;;;;;14.95;4.90;;;10.20;99.90;;;;;;5014109;28;20510;-88
2021/03/21 11:32:00;;;;;;;7.28;4.07;;;10.20;99.90;;;;;;5014360;28;20046;-88
2021/03/21 11:34:27;;;;;;;11.27;4.65;;;10.10;99.90;;;;;;5017958;28;20549;-85
2021/03/21 11:37:00;;;;;;;9.38;4.75;;;10.10;99.90;;;;;;5017767;28;20463;-85
2021/03/21 11:39:28;;;;;;;15.30;4.18;;;10.20;99.90;;;;;;5017632;28;20060;-85
2021/03/21 11:41:55;;;;;;;9.23;4.55;;;10.10;99.90;;;;;;5017435;28;20473;-87
2021/03/21 11:44:23;;;;;;;11.82;4.95;;;10.10;99.90;;;;;;5017347;28;20133;-86
2021/03/21 11:46:50;;;;;;;11.50;4.05;;;10.10;99.90;;;;;;5017312;28;20058;-86
2021/03/21 11:49:18;;;;;;;8.30;3.90;;;10.10;99.90;;;;;;5017294;28;20378;-85
2021/03/21 11:51:45;;;;;;;4.70;2.67;;;10.10;99.90;;;;;;5017196;28;20068;-88
2021/03/21 11:54:17;;;;;;;5.38;2.85;;;10.10;99.90;;;;;;5017146;28;20050;-85
2021/03/21 11:56:53;;;;;;;14.00;2.78;;;10.10;99.90;;;;;;5017480;28;20046;-88
2021/03/21 11:59:20;;;;;;;9.93;3.40;;;10.10;99.90;;;;;;5017299;28;20057;-87
2021/03/21 12:01:48;;;;;;;12.63;3.25;;;10.10;99.90;;;;;;5017190;28;20497;-88
2021/03/21 12:04:21;;;;;;;13.05;3.05;;;10.10;99.90;;;;;;5017344;28;20141;-88
2021/03/21 12:06:48;;;;;;;13.50;2.90;;;10.00;99.90;;;;;;5017065;28;20058;-87
2021/03/21 12:09:21;;;;;;;12.45;2.47;;;10.00;99.90;;;;;;5017312;28;20058;-89
2021/03/21 12:11:48;;;;;;;14.13;4.95;;;10.00;99.90;;;;;;5017070;28;20057;-88
2021/03/21 12:14:22;;;;;;;9.88;3.15;;;9.90;99.90;;;;;;5016802;28;20455;-87
2021/03/21 12:16:49;;;;;;;46.00;6.40;;;9.90;99.90;;;;;;5016730;28;20124;-88
2021/03/21 12:19:29;;;;;;;14.38;2.75;;;9.90;99.90;;;;;;5016764;28;20116;-88
2021/03/21 12:21:56;;;;;;;30.55;10.75;;;9.90;99.90;;;;;;5016384;28;20050;-88
2021/03/21 12:24:24;;;;;;;17.35;7.40;;;9.90;99.90;;;;;;5016537;28;20045;-88
2021/03/21 12:26:53;;;;;;;16.13;4.55;;;10.00;99.90;;;;;;5016412;28;20053;-88
2021/03/21 12:29:40;;;;;;;13.23;3.00;;;10.00;99.90;;;;;;5016529;28;20054;-88
2021/03/21 12:32:30;;;;;;;10.55;3.25;;;10.00;99.90;;;;;;5016243;28;20046;-88
2021/03/21 12:34:57;;;;;;;5.85;2.58;;;10.00;99.90;;;;;;5016522;28;20045;-88
2021/03/21 12:37:26;;;;;;;14.23;2.85;;;10.10;99.90;;;;;;5016858;28;20056;-87
2021/03/21 12:39:54;;;;;;;9.32;2.83;;;10.10;99.90;;;;;;5016388;28;20139;-87
2021/03/21 12:42:31;;;;;;;14.25;2.92;;;10.20;99.90;;;;;;5016438;28;20076;-88
2021/03/21 12:45:07;;;;;;;12.57;2.92;;;10.20;99.90;;;;;;5015928;28;20141;-88
2021/03/21 12:47:34;;;;;;;11.30;2.70;;;10.30;99.90;;;;;;5016348;28;20093;-84
2021/03/21 12:50:16;;;;;;;9.10;4.25;;;10.30;99.90;;;;;;5016407;28;20046;-87
2021/03/21 12:52:44;;;;;;;10.10;3.35;;;10.40;99.90;;;;;;5015731;28;20064;-86
2021/03/21 12:55:12;;;;;;;7.15;2.00;;;10.50;99.90;;;;;;5015976;28;20050;-87
2021/03/21 12:57:39;;;;;;;13.05;3.03;;;10.50;99.90;;;;;;5015968;28;20418;-88
2021/03/21 13:00:06;;;;;;;11.43;2.22;;;10.60;99.90;;;;;;5016363;28;20045;-88
2021/03/21 13:02:34;;;;;;;15.13;2.20;;;10.70;99.90;;;;;;5015989;28;20394;-87
2021/03/21 13:05:03;;;;;;;8.95;2.17;;;10.70;99.90;;;;;;5015850;28;20482;-87
2021/03/21 13:07:30;;;;;;;9.75;2.38;;;10.80;99.90;;;;;;5015613;28;20049;-87
2021/03/21 13:09:57;;;;;;;11.60;2.30;;;10.80;99.90;;;;;;5016316;28;20054;-87
2021/03/21 13:12:24;;;;;;;7.85;2.17;;;10.90;99.90;;;;;;5016089;28;20046;-83
2021/03/21 13:14:51;;;;;;;7.93;2.42;;;10.80;99.90;;;;;;5015843;28;20148;-89
2021/03/21 13:17:17;;;;;;;10.07;2.85;;;10.80;99.90;;;;;;5015991;28;20058;-87
2021/03/21 13:19:44;;;;;;;10.02;2.17;;;10.80;99.90;;;;;;5015603;28;20062;-87
2021/03/21 13:22:12;;;;;;;7.78;2.63;;;10.80;99.90;;;;;;5015489;28;20049;-88
2021/03/21 13:24:38;;;;;;;8.13;2.90;;;10.80;99.90;;;;;;5015708;28;20053;-88